Airfield :
LOGIN :

Register | Disclaimer

   EN    FR    IT 

 










Legend :    VFR   Marginal VFR   IFR   Intensive IFR   Very Intensive IFR
Visi :
Ceiling :
>= 8 km
>= 3000ft
5 to 8 km
1000 to 3000 ft
1500m to 5 km
500 to 1000 ft
800 to 1500m
200 to 500 ft
< 800m
< 200 ft
Symbols :   Thunderstorms  Fog  Heavy snow  Heavy precipitations  Wind > 20 kt
SIGMETs :     Misc.  Thunderstorms  Icing  Turbulence  Mountain Waves  Volcanic Ashes







- Airport Elevation : 147 ft
- IATA code : DUS


EDDL - Düsseldorf Int.

CURRENT METAR :
  • 172350Z VRB01KT CAVOK 14/12 Q1021 NOSIG

EXPIRED METARs :
  • 172320Z VRB01KT CAVOK 13/12 Q1021 NOSIG
  • 172250Z 30003KT CAVOK 16/12 Q1021 NOSIG
  • 172220Z 31003KT 280V360 CAVOK 17/12 Q1021 NOSIG
  • 172150Z 32003KT CAVOK 17/12 Q1020 NOSIG
  • 172120Z 33003KT CAVOK 17/12 Q1020 NOSIG

TAF TAF EDDL
Valid from the 18 at 00:00 until the 19 at 06:00 UTC


172300Z 1800/1906 VRB03KT CAVOK
BECMG 1807/1810 25008KT
BECMG 1818/1821 VRB03KT
No reported NOTAMs for that airfield.



MET'MAP, your aeronautical weather chart ! - Copyright ORBIFLY December 2007 - Disclaimer

ORBIFLY MET'MAP TEAM :

Programming & Development : Alexandra Zaïnal
Concept & Development : Baudouin d'Aumeries
Co-Development & Prog : Marc-Olivier Méhu
Technical & hardware support : Manuel Goepfert

Contact : metmap@orbifly.com




SOURCES & CREDITS :

   NOAA